Time;durP1;ratioP1;P1;durP2;ratioP2;P2;SDS_P1;SDS_P2;PMS_P1;PMS_P2;Temp;Humidity;BMP_temperature;BMP_pressure;BME280_temperature;BME280_humidity;BME280_pressure;Samples;Min_cycle;Max_cycle;Signal;HPM_P1;HPM_P2
2022/07/29 00:00:15;;;;;;;9.20;8.30;;;29.30;49.80;;;;;;4783069;57;21652;-32
2022/07/29 00:05:15;;;;;;;8.25;7.45;;;29.30;50.00;;;;;;4661756;57;20998;-35
2022/07/29 00:10:16;;;;;;;8.80;7.82;;;29.30;50.00;;;;;;4672096;57;21473;-35
2022/07/29 00:15:17;;;;;;;9.00;8.10;;;29.30;50.10;;;;;;4872026;57;21608;-34
2022/07/29 00:20:18;;;;;;;11.05;7.97;;;29.30;50.00;;;;;;4985654;57;21544;-31
2022/07/29 00:25:19;;;;;;;8.63;7.68;;;29.30;50.00;;;;;;4623864;57;21030;-30
2022/07/29 00:30:20;;;;;;;8.38;7.57;;;29.30;50.10;;;;;;4640434;57;21098;-30
2022/07/29 00:40:41;;;;;;;7.90;7.10;;;29.20;49.90;;;;;;4723824;57;21114;-31
2022/07/29 00:45:42;;;;;;;8.18;7.25;;;29.20;49.90;;;;;;4827471;57;21026;-34
2022/07/29 00:50:43;;;;;;;8.48;7.65;;;29.20;49.80;;;;;;4621105;57;21086;-34
2022/07/29 00:55:44;;;;;;;8.75;7.65;;;29.20;50.10;;;;;;4932496;57;21090;-35
2022/07/29 01:00:44;;;;;;;8.00;7.07;;;29.20;49.90;;;;;;4763861;57;21560;-34
2022/07/29 01:05:46;;;;;;;7.55;6.85;;;29.20;49.80;;;;;;4562196;57;21094;-32
2022/07/29 01:10:48;;;;;;;8.13;7.32;;;29.20;49.90;;;;;;4584912;57;21539;-34
2022/07/29 01:15:56;;;;;;;7.85;7.12;;;29.20;50.00;;;;;;4807962;57;21094;-33
2022/07/29 01:22:37;;;;;;;9.20;6.82;;;29.20;50.00;;;;;;4630043;57;21157;-34
2022/07/29 01:28:23;;;;;;;7.32;6.62;;;29.20;49.90;;;;;;4562656;58;21129;-31
2022/07/29 01:38:56;;;;;;;8.63;6.82;;;29.20;49.80;;;;;;4562365;57;21046;-30
2022/07/29 01:44:01;;;;;;;7.30;6.62;;;29.20;49.80;;;;;;4723652;57;21026;-30
2022/07/29 01:49:09;;;;;;;7.70;7.00;;;29.20;49.90;;;;;;4593230;57;21022;-30
2022/07/29 01:54:28;;;;;;;6.78;6.18;;;29.20;49.80;;;;;;4654971;57;21517;-30
2022/07/29 01:59:30;;;;;;;6.80;6.10;;;29.20;49.70;;;;;;4631312;57;21065;-30
2022/07/29 02:04:33;;;;;;;6.47;5.87;;;29.20;49.80;;;;;;4562026;57;21551;-33
2022/07/29 02:09:37;;;;;;;8.13;6.62;;;29.20;49.80;;;;;;4662040;57;21146;-31
2022/07/29 02:14:44;;;;;;;7.22;6.53;;;29.20;49.90;;;;;;4598313;57;21094;-33
2022/07/29 02:19:46;;;;;;;7.25;6.55;;;29.20;49.90;;;;;;4641793;57;21038;-34
2022/07/29 02:24:50;;;;;;;6.97;6.30;;;29.10;49.70;;;;;;4741220;57;21050;-33
2022/07/29 02:29:53;;;;;;;6.68;6.05;;;29.10;49.70;;;;;;4937579;57;21082;-36
2022/07/29 02:34:55;;;;;;;7.12;6.43;;;29.10;49.70;;;;;;4760243;57;21516;-31
2022/07/29 02:39:58;;;;;;;6.90;5.75;;;29.10;49.70;;;;;;4904138;57;21081;-28
2022/07/29 02:44:59;;;;;;;6.43;5.65;;;29.10;49.70;;;;;;4657029;57;21137;-36
2022/07/29 02:50:12;;;;;;;6.55;5.95;;;29.10;49.50;;;;;;4571364;57;21094;-37
2022/07/29 02:55:40;;;;;;;6.30;5.70;;;29.10;49.70;;;;;;4591597;57;21023;-35
2022/07/29 03:00:42;;;;;;;6.95;6.18;;;29.10;49.60;;;;;;4579312;57;21524;-31
2022/07/29 03:05:43;;;;;;;6.55;5.85;;;29.10;49.60;;;;;;4562522;61;21097;-34
2022/07/29 03:10:46;;;;;;;6.75;6.07;;;29.10;49.50;;;;;;4768550;57;21034;-35
2022/07/29 03:15:48;;;;;;;5.95;5.35;;;29.10;49.50;;;;;;4688459;57;21579;-36
2022/07/29 03:20:49;;;;;;;6.47;5.85;;;29.10;49.60;;;;;;4650976;57;21079;-35
2022/07/29 03:25:51;;;;;;;6.97;5.95;;;29.10;49.50;;;;;;4688688;57;21383;-34
2022/07/29 03:30:52;;;;;;;6.75;6.15;;;29.10;49.50;;;;;;4711984;57;21103;-32
2022/07/29 03:35:52;;;;;;;6.90;6.20;;;29.10;49.30;;;;;;4562640;61;21102;-32
2022/07/29 03:41:01;;;;;;;5.80;5.20;;;29.10;49.50;;;;;;4599602;57;21596;-29
2022/07/29 03:46:06;;;;;;;6.12;5.53;;;29.10;49.40;;;;;;4622300;57;21531;-31
2022/07/29 03:51:07;;;;;;;6.50;5.78;;;29.10;49.50;;;;;;4739679;57;21021;-36
2022/07/29 03:56:09;;;;;;;5.93;5.32;;;29.10;49.60;;;;;;4599049;57;21082;-35
2022/07/29 04:01:11;;;;;;;5.75;5.22;;;29.10;49.40;;;;;;4610142;57;21038;-34
2022/07/29 04:06:12;;;;;;;6.53;5.47;;;29.10;49.30;;;;;;4647170;57;21022;-33
2022/07/29 04:11:13;;;;;;;5.90;5.30;;;29.10;49.30;;;;;;4864829;57;21070;-33
2022/07/29 04:16:14;;;;;;;7.12;5.78;;;29.00;49.30;;;;;;4618670;57;21560;-33
2022/07/29 04:21:15;;;;;;;7.07;6.03;;;29.00;49.30;;;;;;4960428;57;21098;-36
2022/07/29 04:26:20;;;;;;;6.30;5.70;;;29.00;49.30;;;;;;4631046;57;21153;-35
2022/07/29 04:31:20;;;;;;;6.50;5.60;;;29.00;49.30;;;;;;4711653;57;21085;-35
2022/07/29 04:36:21;;;;;;;6.35;5.70;;;29.00;49.30;;;;;;4578453;57;21030;-36
2022/07/29 04:41:22;;;;;;;6.07;5.53;;;29.10;49.20;;;;;;4815738;57;21607;-30
2022/07/29 04:46:23;;;;;;;6.68;5.97;;;29.00;49.20;;;;;;4680499;57;21083;-32
2022/07/29 04:51:24;;;;;;;6.37;5.65;;;29.00;49.20;;;;;;4575827;57;21086;-37
2022/07/29 04:56:24;;;;;;;7.72;5.68;;;29.00;49.20;;;;;;4684889;57;21129;-32
2022/07/29 05:01:25;;;;;;;6.72;5.75;;;29.00;49.20;;;;;;4562018;61;21647;-36
2022/07/29 05:06:26;;;;;;;6.10;5.22;;;29.00;49.10;;;;;;4676192;57;21073;-33
2022/07/29 05:11:27;;;;;;;7.00;5.40;;;29.00;49.10;;;;;;4674580;57;21082;-33
2022/07/29 05:16:28;;;;;;;6.03;5.53;;;29.00;48.90;;;;;;4720124;57;21125;-32
2022/07/29 05:21:28;;;;;;;6.60;5.85;;;29.00;49.00;;;;;;4643434;57;21540;-29
2022/07/29 05:26:29;;;;;;;6.40;5.32;;;29.00;49.10;;;;;;4741633;57;21099;-30
2022/07/29 05:31:30;;;;;;;6.53;5.90;;;29.00;49.00;;;;;;4935581;57;21018;-35
2022/07/29 05:36:31;;;;;;;6.18;5.57;;;29.00;49.50;;;;;;4653738;57;21118;-35
2022/07/29 05:41:32;;;;;;;7.20;6.28;;;29.00;49.00;;;;;;4651558;57;21046;-33
2022/07/29 05:46:33;;;;;;;5.97;5.37;;;29.00;49.00;;;;;;4793388;57;21030;-30
2022/07/29 05:51:34;;;;;;;7.97;6.37;;;29.00;49.00;;;;;;4991797;57;21074;-32
2022/07/29 05:56:36;;;;;;;6.57;5.87;;;29.00;48.90;;;;;;4617573;57;21519;-33
2022/07/29 06:01:39;;;;;;;6.47;5.75;;;28.90;49.00;;;;;;4621733;57;21507;-36
2022/07/29 06:06:40;;;;;;;6.70;6.03;;;29.00;49.00;;;;;;4808573;57;21512;-31
2022/07/29 06:11:41;;;;;;;6.55;5.95;;;29.00;49.00;;;;;;4594355;57;21197;-31
2022/07/29 06:16:42;;;;;;;7.53;6.35;;;29.00;49.00;;;;;;4656568;57;21532;-32
2022/07/29 06:21:44;;;;;;;6.53;5.93;;;28.90;49.10;;;;;;4825247;57;21576;-34
2022/07/29 06:26:45;;;;;;;8.95;6.28;;;29.00;49.00;;;;;;4685408;57;21106;-33
2022/07/29 06:31:46;;;;;;;7.00;6.32;;;28.90;49.00;;;;;;4602182;57;21014;-29
2022/07/29 06:36:46;;;;;;;9.20;7.28;;;29.00;48.90;;;;;;4660030;57;21097;-33
2022/07/29 06:41:51;;;;;;;9.75;7.70;;;29.00;48.80;;;;;;4561062;57;21085;-28
2022/07/29 06:46:52;;;;;;;16.73;12.48;;;29.00;48.00;;;;;;4577027;57;21126;-31
2022/07/29 06:51:55;;;;;;;15.00;11.65;;;28.80;45.90;;;;;;4741485;57;21531;-33
2022/07/29 06:56:55;;;;;;;15.50;12.13;;;28.70;46.00;;;;;;4633277;57;21089;-30
2022/07/29 07:01:56;;;;;;;20.10;14.98;;;28.70;46.20;;;;;;4561945;61;21113;-29
2022/07/29 07:06:58;;;;;;;17.85;14.65;;;28.60;46.20;;;;;;4936596;57;21543;-27
2022/07/29 07:11:59;;;;;;;19.33;15.32;;;28.60;46.20;;;;;;4605065;57;21668;-30
2022/07/29 07:17:00;;;;;;;20.88;17.12;;;28.60;46.50;;;;;;4569792;57;21061;-35
2022/07/29 07:22:01;;;;;;;24.27;18.87;;;28.60;46.70;;;;;;4596822;57;21102;-33
2022/07/29 07:27:02;;;;;;;26.02;21.12;;;28.60;47.20;;;;;;4786230;57;21097;-31
2022/07/29 07:32:03;;;;;;;26.10;22.62;;;28.70;47.40;;;;;;4684628;57;21026;-30
2022/07/29 07:37:04;;;;;;;26.80;22.35;;;28.60;47.70;;;;;;4619423;57;21047;-28
2022/07/29 07:42:04;;;;;;;26.85;23.73;;;28.70;47.90;;;;;;4617500;57;21054;-30
2022/07/29 07:47:05;;;;;;;25.10;21.37;;;28.70;48.20;;;;;;4562200;58;21030;-29
2022/07/29 07:52:06;;;;;;;24.08;20.58;;;28.70;48.20;;;;;;4592847;57;21022;-30
2022/07/29 07:57:07;;;;;;;32.85;27.67;;;28.70;48.00;;;;;;4562199;61;21163;-29
2022/07/29 08:02:09;;;;;;;26.33;22.73;;;28.70;48.10;;;;;;4561249;61;21091;-30
2022/07/29 08:07:10;;;;;;;28.58;22.55;;;28.80;48.70;;;;;;4561788;58;21030;-30
2022/07/29 08:12:10;;;;;;;26.73;22.10;;;28.80;48.10;;;;;;4579437;57;21017;-30
2022/07/29 08:17:11;;;;;;;24.58;21.90;;;28.90;48.30;;;;;;4618098;57;21070;-29
2022/07/29 08:22:13;;;;;;;24.60;21.33;;;28.90;48.30;;;;;;4575479;57;21579;-29
2022/07/29 08:27:14;;;;;;;26.08;21.42;;;29.00;48.30;;;;;;4588673;57;21098;-31
2022/07/29 08:32:15;;;;;;;27.23;21.42;;;29.00;48.30;;;;;;4561742;61;21033;-33
2022/07/29 08:37:16;;;;;;;26.15;20.15;;;29.00;48.10;;;;;;4558786;57;21595;-30
2022/07/29 08:42:17;;;;;;;26.73;20.65;;;29.10;48.10;;;;;;4559889;59;21022;-32
2022/07/29 08:47:18;;;;;;;24.87;20.33;;;29.10;48.00;;;;;;4723212;57;21128;-30
2022/07/29 08:52:21;;;;;;;23.95;19.67;;;29.10;48.10;;;;;;4719967;57;21070;-30
2022/07/29 08:57:24;;;;;;;33.20;20.62;;;29.10;48.00;;;;;;4562421;61;21572;-32
2022/07/29 09:02:28;;;;;;;36.03;22.75;;;29.10;48.20;;;;;;4647350;57;21014;-29
2022/07/29 09:07:29;;;;;;;32.47;22.67;;;29.20;48.40;;;;;;4562311;61;21080;-34
2022/07/29 09:12:30;;;;;;;35.13;25.90;;;29.20;48.40;;;;;;4576485;57;21034;-30
2022/07/29 09:17:50;;;;;;;29.30;22.87;;;29.20;48.60;;;;;;4594805;57;21709;-30
2022/07/29 09:22:55;;;;;;;32.55;23.38;;;29.20;48.30;;;;;;4772386;57;21588;-28
2022/07/29 09:28:09;;;;;;;28.17;21.03;;;29.20;48.00;;;;;;4575589;57;21485;-30
2022/07/29 09:33:10;;;;;;;27.42;20.10;;;29.30;47.40;;;;;;4699126;57;21026;-29
2022/07/29 09:38:12;;;;;;;25.30;20.05;;;29.30;47.80;;;;;;4562069;61;21026;-30
2022/07/29 09:43:13;;;;;;;30.37;20.83;;;29.30;47.60;;;;;;4625522;57;21099;-32
2022/07/29 09:48:19;;;;;;;24.73;21.10;;;29.30;48.00;;;;;;4603673;57;21010;-30
2022/07/29 09:53:34;;;;;;;25.75;21.02;;;29.40;48.10;;;;;;4613294;57;21026;-30
2022/07/29 09:58:35;;;;;;;27.50;20.77;;;29.40;48.50;;;;;;4671541;57;21065;-30
2022/07/29 10:03:52;;;;;;;26.00;20.77;;;29.50;49.40;;;;;;4668239;57;21146;-30
2022/07/29 10:08:54;;;;;;;24.05;19.67;;;29.50;48.80;;;;;;4561816;57;21014;-31
2022/07/29 10:13:55;;;;;;;25.95;18.60;;;29.50;48.80;;;;;;4587829;57;21021;-33
2022/07/29 10:18:56;;;;;;;24.25;17.37;;;29.50;48.30;;;;;;4595734;57;21102;-34
2022/07/29 10:23:58;;;;;;;27.10;19.20;;;29.50;48.80;;;;;;4755998;57;21102;-31
2022/07/29 10:29:00;;;;;;;27.58;22.00;;;29.50;48.30;;;;;;4616259;57;21022;-31
2022/07/29 10:38:30;;;;;;;27.27;24.00;;;29.50;48.50;;;;;;4650328;57;21026;-29
2022/07/29 10:43:37;;;;;;;20.80;17.87;;;29.60;47.40;;;;;;4578298;57;21042;-31
2022/07/29 10:49:10;;;;;;;22.67;17.12;;;29.60;46.70;;;;;;4570043;57;21561;-33
2022/07/29 10:54:11;;;;;;;18.05;15.93;;;29.60;46.50;;;;;;4713253;57;21157;-33
2022/07/29 11:03:17;;;;;;;20.65;15.98;;;29.60;46.10;;;;;;4562422;61;21026;-32
2022/07/29 11:08:22;;;;;;;22.42;18.75;;;29.70;48.10;;;;;;4627352;57;21030;-29
2022/07/29 11:13:50;;;;;;;28.13;19.47;;;29.50;47.70;;;;;;4649174;57;21535;-29
2022/07/29 11:19:27;;;;;;;23.73;18.75;;;29.00;47.10;;;;;;4697432;57;21719;-32
2022/07/29 11:24:34;;;;;;;21.75;19.37;;;29.10;46.60;;;;;;4594157;57;21530;-34
2022/07/29 11:29:47;;;;;;;21.50;19.20;;;29.30;46.00;;;;;;4639054;57;21528;-28
2022/07/29 11:34:49;;;;;;;23.02;18.80;;;29.40;46.10;;;;;;4559758;61;21089;-31
2022/07/29 11:40:25;;;;;;;21.83;18.55;;;29.50;46.10;;;;;;4565402;57;21149;-28
2022/07/29 11:45:44;;;;;;;25.20;17.20;;;29.50;46.10;;;;;;4591921;57;21030;-30
2022/07/29 11:50:45;;;;;;;20.75;17.60;;;29.50;46.10;;;;;;4563964;57;21051;-31
2022/07/29 11:55:54;;;;;;;19.42;17.17;;;29.50;46.10;;;;;;4622208;57;21539;-33
2022/07/29 12:01:01;;;;;;;21.85;17.85;;;29.60;46.10;;;;;;4662200;57;21042;-29
2022/07/29 12:06:12;;;;;;;24.20;19.27;;;29.50;46.10;;;;;;4782704;57;21110;-29
2022/07/29 12:11:20;;;;;;;21.50;18.73;;;29.60;46.10;;;;;;4774063;57;21496;-29
2022/07/29 12:16:21;;;;;;;22.50;20.12;;;29.60;46.10;;;;;;4630002;57;21524;-28
2022/07/29 12:21:22;;;;;;;23.40;20.23;;;29.60;46.10;;;;;;4650920;57;21057;-29
2022/07/29 12:26:23;;;;;;;23.67;20.17;;;29.60;46.10;;;;;;4619930;57;21543;-30
2022/07/29 12:31:24;;;;;;;22.92;19.42;;;29.60;46.20;;;;;;4561898;61;21062;-29
2022/07/29 12:36:25;;;;;;;20.40;17.73;;;29.60;46.20;;;;;;4659235;57;21089;-28
2022/07/29 12:41:28;;;;;;;24.95;18.20;;;29.70;48.90;;;;;;4615071;57;21094;-26
2022/07/29 12:46:29;;;;;;;21.70;18.08;;;29.70;48.80;;;;;;4562189;61;21545;-31
2022/07/29 12:51:36;;;;;;;17.95;15.48;;;29.70;50.20;;;;;;4608832;57;21026;-31
2022/07/29 12:56:38;;;;;;;20.88;16.67;;;29.80;50.00;;;;;;4596135;57;21014;-29
2022/07/29 13:01:39;;;;;;;19.77;15.48;;;29.90;49.60;;;;;;4610580;57;21097;-28
2022/07/29 13:06:45;;;;;;;26.77;15.70;;;29.80;48.30;;;;;;4710867;57;21078;-28
2022/07/29 13:11:49;;;;;;;21.12;16.52;;;29.60;50.10;;;;;;4579678;57;21017;-26
2022/07/29 13:17:11;;;;;;;19.85;16.58;;;29.70;50.40;;;;;;4652954;57;21531;-28
2022/07/29 13:22:14;;;;;;;21.23;16.98;;;29.80;50.60;;;;;;4616246;57;21038;-29
2022/07/29 13:27:20;;;;;;;18.83;16.83;;;29.60;50.80;;;;;;5007024;57;21539;-33
2022/07/29 13:32:22;;;;;;;19.87;17.73;;;29.70;50.70;;;;;;4765300;57;21037;-32
2022/07/29 13:37:23;;;;;;;22.00;18.08;;;29.70;50.00;;;;;;4591125;57;21082;-33
2022/07/29 13:42:24;;;;;;;20.52;17.55;;;29.70;50.20;;;;;;4708523;57;21113;-33
2022/07/29 13:47:26;;;;;;;21.08;18.27;;;29.70;50.30;;;;;;4715053;57;21571;-33
2022/07/29 13:52:27;;;;;;;23.42;17.58;;;29.60;50.40;;;;;;4562306;61;21025;-31
2022/07/29 13:57:29;;;;;;;18.73;16.77;;;29.60;50.50;;;;;;4562580;57;21459;-34
2022/07/29 14:02:30;;;;;;;19.23;17.15;;;29.60;50.60;;;;;;4663636;57;21131;-31
2022/07/29 14:07:31;;;;;;;18.83;16.92;;;29.60;50.70;;;;;;4562602;61;21041;-31
2022/07/29 14:12:31;;;;;;;18.85;16.65;;;29.60;50.80;;;;;;4576150;57;21002;-32
2022/07/29 14:17:32;;;;;;;17.73;15.63;;;29.60;50.80;;;;;;4561558;58;21110;-30
2022/07/29 14:22:33;;;;;;;20.67;17.15;;;29.60;50.90;;;;;;4651187;57;21255;-32
2022/07/29 14:27:34;;;;;;;19.08;16.37;;;29.60;51.00;;;;;;4604248;57;21090;-32
2022/07/29 14:32:35;;;;;;;24.20;17.08;;;29.60;51.00;;;;;;4606428;57;21030;-29
2022/07/29 14:37:36;;;;;;;18.25;16.35;;;29.60;51.00;;;;;;4601132;57;21074;-30
2022/07/29 14:42:38;;;;;;;18.05;16.17;;;29.60;51.20;;;;;;4790309;57;21520;-31
2022/07/29 14:47:39;;;;;;;18.60;16.62;;;29.60;51.10;;;;;;4562401;61;21492;-30
2022/07/29 14:52:40;;;;;;;18.40;16.50;;;29.50;51.20;;;;;;4837215;57;21101;-31
2022/07/29 14:57:40;;;;;;;18.10;16.10;;;29.50;51.20;;;;;;4591503;57;21564;-31
2022/07/29 15:02:41;;;;;;;19.12;17.10;;;29.60;51.30;;;;;;4784081;57;21086;-31
2022/07/29 15:07:42;;;;;;;18.73;16.27;;;29.60;51.30;;;;;;4562299;61;21125;-32
2022/07/29 15:12:43;;;;;;;17.58;15.82;;;29.50;51.40;;;;;;4745642;57;21033;-30
2022/07/29 15:17:45;;;;;;;17.83;16.02;;;29.60;51.40;;;;;;4692285;57;21066;-32
2022/07/29 15:22:46;;;;;;;16.60;15.00;;;29.50;51.40;;;;;;4719829;57;21568;-33
2022/07/29 15:27:46;;;;;;;17.15;15.45;;;29.50;51.50;;;;;;4898691;57;21069;-32
2022/07/29 15:32:47;;;;;;;17.77;15.88;;;29.50;51.50;;;;;;4653191;57;21098;-32
2022/07/29 15:37:48;;;;;;;17.37;15.68;;;29.50;51.50;;;;;;4597659;57;21089;-31
2022/07/29 15:42:49;;;;;;;17.95;16.15;;;29.50;51.50;;;;;;5008916;57;21031;-34
2022/07/29 15:47:50;;;;;;;17.00;15.20;;;29.50;51.50;;;;;;4624443;57;21026;-32
2022/07/29 15:52:50;;;;;;;16.87;15.25;;;29.50;51.60;;;;;;4713423;57;21025;-33
2022/07/29 15:57:51;;;;;;;16.67;15.00;;;29.50;51.60;;;;;;4578308;57;21663;-31
2022/07/29 16:02:52;;;;;;;17.10;15.48;;;29.50;51.60;;;;;;4917429;57;21158;-32
2022/07/29 16:07:53;;;;;;;17.83;16.02;;;29.50;51.70;;;;;;4617155;57;21517;-33
2022/07/29 16:12:54;;;;;;;16.98;15.18;;;29.50;51.70;;;;;;4846914;57;21026;-35
2022/07/29 16:17:54;;;;;;;17.75;15.50;;;29.50;51.80;;;;;;4873366;57;21118;-32
2022/07/29 16:22:55;;;;;;;17.60;15.80;;;29.50;51.80;;;;;;4684527;57;21037;-33
2022/07/29 16:27:56;;;;;;;17.27;15.57;;;29.50;51.80;;;;;;4645347;57;21031;-32
2022/07/29 16:32:57;;;;;;;16.85;15.25;;;29.50;51.90;;;;;;4718714;57;21134;-30
2022/07/29 16:37:57;;;;;;;15.43;13.80;;;29.50;51.80;;;;;;4562463;61;21094;-33
2022/07/29 16:42:59;;;;;;;17.70;15.90;;;29.50;51.80;;;;;;4612016;57;21090;-30
2022/07/29 16:47:59;;;;;;;17.48;15.50;;;29.50;51.80;;;;;;4640868;57;21145;-31
2022/07/29 16:53:00;;;;;;;16.95;15.25;;;29.50;51.90;;;;;;4656497;57;21026;-36
2022/07/29 16:58:01;;;;;;;18.17;15.55;;;29.50;51.90;;;;;;4562450;61;21135;-32
2022/07/29 17:03:02;;;;;;;16.30;14.60;;;29.50;51.90;;;;;;4769303;57;21106;-34
2022/07/29 17:08:03;;;;;;;16.90;15.20;;;29.50;51.90;;;;;;4596388;57;21097;-32
2022/07/29 17:13:03;;;;;;;16.33;14.68;;;29.50;51.90;;;;;;4698350;57;21492;-30
2022/07/29 17:18:04;;;;;;;16.77;15.13;;;29.50;52.00;;;;;;4749383;57;21563;-32
2022/07/29 17:23:05;;;;;;;15.90;14.30;;;29.50;52.10;;;;;;4794926;57;21029;-32
2022/07/29 17:28:06;;;;;;;15.60;14.15;;;29.50;52.00;;;;;;4676000;57;21033;-31
2022/07/29 17:33:07;;;;;;;15.73;14.23;;;29.50;52.10;;;;;;4562704;61;21081;-31
2022/07/29 17:38:07;;;;;;;16.45;14.75;;;29.50;52.20;;;;;;4747559;57;21165;-32
2022/07/29 17:43:08;;;;;;;14.90;13.45;;;29.50;52.10;;;;;;4561899;61;21046;-34
2022/07/29 17:48:09;;;;;;;16.60;14.85;;;29.50;52.20;;;;;;4562287;59;21042;-32
2022/07/29 17:53:10;;;;;;;16.25;14.65;;;29.50;52.20;;;;;;4818114;57;21080;-36
2022/07/29 17:58:11;;;;;;;15.43;14.00;;;29.50;52.20;;;;;;4662346;57;21542;-34
2022/07/29 18:03:12;;;;;;;16.08;14.55;;;29.50;52.30;;;;;;4561486;61;21051;-32
2022/07/29 18:08:12;;;;;;;15.63;14.13;;;29.50;52.30;;;;;;4689774;57;21034;-32
2022/07/29 18:13:15;;;;;;;16.73;15.02;;;29.50;52.30;;;;;;4562267;61;21093;-32
2022/07/29 18:18:17;;;;;;;15.65;14.05;;;29.50;52.30;;;;;;4704952;57;21532;-35
2022/07/29 18:23:17;;;;;;;15.55;14.05;;;29.50;52.40;;;;;;4561891;57;21599;-33
2022/07/29 18:28:18;;;;;;;16.05;14.50;;;29.50;52.60;;;;;;4577217;57;21025;-33
2022/07/29 18:33:19;;;;;;;16.60;14.90;;;29.50;52.50;;;;;;4682101;57;21022;-32
2022/07/29 18:38:20;;;;;;;14.87;13.48;;;29.50;52.50;;;;;;4623767;57;21094;-34
2022/07/29 18:43:21;;;;;;;16.05;14.43;;;29.50;52.60;;;;;;4576633;57;21747;-32
2022/07/29 18:48:22;;;;;;;15.65;14.15;;;29.50;52.60;;;;;;4710613;57;21049;-32
2022/07/29 18:53:23;;;;;;;14.98;13.57;;;29.50;52.60;;;;;;4754169;57;21024;-33
2022/07/29 18:58:24;;;;;;;15.00;13.62;;;29.50;52.50;;;;;;4708134;57;21553;-34
2022/07/29 19:03:24;;;;;;;15.23;13.77;;;29.50;52.60;;;;;;4616849;57;21041;-34
2022/07/29 19:08:25;;;;;;;16.10;14.60;;;29.50;52.60;;;;;;4569639;57;21034;-32
2022/07/29 19:13:26;;;;;;;15.32;13.93;;;29.50;52.60;;;;;;4972521;57;21174;-32
2022/07/29 19:18:27;;;;;;;14.68;13.27;;;29.50;52.70;;;;;;4681281;57;21102;-34
2022/07/29 19:23:28;;;;;;;15.85;14.32;;;29.50;52.70;;;;;;4561633;61;21103;-32
2022/07/29 19:28:28;;;;;;;15.98;14.48;;;29.50;53.30;;;;;;4576056;57;21097;-31
2022/07/29 19:33:29;;;;;;;14.95;13.55;;;29.50;52.70;;;;;;4778033;57;21132;-33
2022/07/29 19:38:30;;;;;;;15.40;13.93;;;29.50;52.70;;;;;;4610887;57;21078;-31
2022/07/29 19:43:33;;;;;;;15.95;14.50;;;29.50;52.70;;;;;;4770443;57;21043;-33
2022/07/29 19:48:34;;;;;;;15.95;14.45;;;29.50;52.80;;;;;;4725634;57;21480;-31
2022/07/29 19:53:35;;;;;;;15.48;13.90;;;29.50;52.80;;;;;;4562036;58;21556;-28
2022/07/29 19:58:36;;;;;;;15.25;13.73;;;29.50;52.80;;;;;;4838308;57;21089;-31
2022/07/29 20:03:38;;;;;;;14.93;13.52;;;29.40;52.70;;;;;;4583737;57;21041;-31
2022/07/29 20:08:39;;;;;;;14.85;13.35;;;29.50;52.80;;;;;;4591956;57;21632;-33
2022/07/29 20:13:40;;;;;;;14.87;13.50;;;29.50;52.90;;;;;;4562418;61;21026;-32
2022/07/29 20:18:41;;;;;;;14.95;13.55;;;29.50;52.90;;;;;;4615065;57;21103;-33
2022/07/29 20:23:41;;;;;;;15.52;14.02;;;29.50;52.90;;;;;;4629355;57;21054;-32
2022/07/29 20:28:42;;;;;;;15.02;13.62;;;29.50;52.90;;;;;;5009279;57;21090;-31
2022/07/29 20:33:44;;;;;;;15.55;13.93;;;29.50;53.00;;;;;;4702852;57;21150;-30
2022/07/29 20:38:44;;;;;;;14.87;13.30;;;29.50;52.90;;;;;;4841476;57;21456;-30
2022/07/29 20:43:47;;;;;;;14.93;13.35;;;29.40;52.90;;;;;;4601418;57;21035;-32
2022/07/29 20:48:48;;;;;;;14.82;13.43;;;29.40;52.90;;;;;;4628315;57;21503;-32
2022/07/29 20:53:49;;;;;;;14.70;13.30;;;29.40;52.90;;;;;;4562536;61;21083;-33
2022/07/29 20:58:50;;;;;;;14.73;13.20;;;29.40;52.90;;;;;;4930928;57;21037;-33
2022/07/29 21:03:50;;;;;;;14.85;13.45;;;29.40;52.90;;;;;;4618597;57;21577;-30
2022/07/29 21:08:51;;;;;;;13.82;12.52;;;29.40;52.90;;;;;;4875094;57;21057;-31
2022/07/29 21:13:52;;;;;;;14.80;13.40;;;29.40;53.00;;;;;;4562461;61;21106;-28
2022/07/29 21:18:53;;;;;;;14.23;12.90;;;29.40;53.00;;;;;;4595647;57;21535;-33
2022/07/29 21:23:54;;;;;;;14.70;13.30;;;29.40;53.00;;;;;;4754087;57;21090;-31
2022/07/29 21:28:55;;;;;;;14.02;12.73;;;29.40;53.00;;;;;;4661662;57;21578;-34
2022/07/29 21:33:55;;;;;;;14.25;12.85;;;29.40;53.00;;;;;;4854177;57;21097;-33
2022/07/29 21:38:57;;;;;;;13.75;12.45;;;29.40;53.00;;;;;;4973169;57;21093;-33
2022/07/29 21:43:58;;;;;;;13.75;12.40;;;29.40;53.10;;;;;;4702456;57;21537;-33
2022/07/29 21:48:58;;;;;;;13.90;12.60;;;29.40;53.80;;;;;;4910496;57;21045;-31
2022/07/29 21:53:59;;;;;;;14.35;12.95;;;29.40;53.10;;;;;;5009275;57;21081;-32
2022/07/29 21:59:00;;;;;;;13.98;12.70;;;29.40;53.10;;;;;;4562146;61;21137;-32
2022/07/29 22:04:01;;;;;;;13.85;12.55;;;29.40;53.10;;;;;;4814493;57;21504;-33
2022/07/29 22:09:02;;;;;;;14.45;12.95;;;29.40;53.10;;;;;;4690620;57;21078;-33
2022/07/29 22:14:06;;;;;;;13.95;12.60;;;29.40;53.20;;;;;;4562416;61;21049;-32
2022/07/29 22:19:06;;;;;;;13.80;12.50;;;29.40;53.10;;;;;;4680648;57;21623;-31
2022/07/29 22:24:09;;;;;;;13.43;12.27;;;29.40;53.30;;;;;;4561798;61;21034;-31
2022/07/29 22:29:10;;;;;;;14.05;12.75;;;29.40;53.20;;;;;;4562513;61;21575;-34
2022/07/29 22:34:12;;;;;;;12.82;11.65;;;29.40;53.30;;;;;;4994408;57;21629;-29
2022/07/29 22:39:13;;;;;;;13.38;11.98;;;29.40;53.30;;;;;;4695194;57;21507;-30
2022/07/29 22:44:13;;;;;;;13.85;12.15;;;29.40;53.30;;;;;;4947690;57;21150;-30
2022/07/29 22:49:14;;;;;;;12.80;11.63;;;29.30;53.20;;;;;;4562529;61;21093;-32
2022/07/29 22:54:15;;;;;;;13.43;12.13;;;29.30;53.30;;;;;;4983528;57;21026;-32
2022/07/29 22:59:16;;;;;;;13.07;11.88;;;29.30;53.30;;;;;;4600355;57;21058;-33
2022/07/29 23:04:22;;;;;;;13.13;11.93;;;29.30;53.20;;;;;;4662642;57;21038;-32
2022/07/29 23:09:23;;;;;;;13.20;11.90;;;29.30;53.30;;;;;;4665527;57;21472;-30
2022/07/29 23:14:23;;;;;;;12.27;11.18;;;29.30;53.20;;;;;;4571213;57;21026;-33
2022/07/29 23:19:24;;;;;;;12.10;11.00;;;29.30;53.30;;;;;;4562513;58;21635;-35
2022/07/29 23:24:25;;;;;;;12.35;11.15;;;29.30;53.40;;;;;;4636059;57;21087;-31
2022/07/29 23:29:26;;;;;;;12.80;11.50;;;29.30;53.30;;;;;;4670733;57;21122;-33
2022/07/29 23:34:27;;;;;;;12.60;11.40;;;29.40;53.40;;;;;;4562416;61;21508;-32
2022/07/29 23:39:27;;;;;;;12.80;11.60;;;29.30;53.40;;;;;;4710448;57;21147;-31
2022/07/29 23:44:28;;;;;;;11.60;10.60;;;29.30;53.40;;;;;;4561674;58;21042;-31
2022/07/29 23:49:29;;;;;;;12.18;10.98;;;29.30;53.30;;;;;;4623584;57;21030;-32
2022/07/29 23:54:30;;;;;;;12.20;11.10;;;29.30;53.40;;;;;;4728296;57;21517;-33
2022/07/29 23:59:31;;;;;;;11.82;10.80;;;29.30;53.40;;;;;;5009093;57;21026;-31
